PST,Max TemperatureF,Mean TemperatureF,Min TemperatureF,Max Dew PointF,MeanDew PointF,Min DewpointF,Max Humidity, Mean Humidity, Min Humidity, Max Sea Level PressureIn, Mean Sea Level PressureIn, Min Sea Level PressureIn, Max VisibilityMiles, Mean VisibilityMiles, Min VisibilityMiles, Max Wind SpeedMPH, Mean Wind SpeedMPH, Max Gust SpeedMPH,PrecipitationIn, CloudCover, Events, WindDirDegrees
2014-1-1,65,48,30,35,31,28,100,64,28,30.23,30.18,30.14,8,5,2,66,3,88,0.00,0,,121
2014-1-2,64,48,32,35,33,29,89,62,34,30.21,30.13,30.07,8,6,3,7,2,,0.00,0,,353
2014-1-3,63,49,34,37,35,32,96,66,36,30.09,30.03,29.97,6,5,4,6,2,,0.00,0,,133
2014-1-4,64,49,33,40,35,30,96,66,36,30.10,30.02,29.99,10,6,2,29,2,37,0.00,0,,330
2014-1-5,64,48,32,36,32,30,96,63,30,30.23,30.17,30.11,10,6,2,5,1,,0.00,0,,117
2014-1-6,58,46,33,39,35,30,89,68,47,30.30,30.23,30.17,6,4,2,6,1,8,0.00,0,,95
2014-1-7,63,51,38,39,35,32,85,59,32,30.19,30.16,30.12,8,5,2,10,0,,0.00,0,,307
2014-1-8,60,49,37,48,40,33,92,74,55,30.21,30.18,30.14,10,6,0,92,3,,0.00,1,Fog,342
2014-1-9,63,50,37,46,41,35,92,72,52,30.25,30.21,30.16,10,7,3,18,3,23,0.00,2,,326
2014-1-10,63,51,38,42,40,35,92,69,46,30.31,30.23,30.19,10,10,7,10,4,16,0.00,0,,346
2014-1-11,58,49,39,45,41,37,92,77,61,30.26,30.21,30.14,10,5,2,9,5,,T,1,,102
2014-1-12,61,50,38,44,36,29,96,64,32,30.35,30.30,30.25,10,10,7,25,9,29,0.00,0,,318
2014-1-13,63,48,32,42,35,30,96,66,36,30.49,30.42,30.36,10,5,0,7,1,21,0.00,0,Fog,120
2014-1-14,66,49,32,38,35,30,96,65,34,30.50,30.41,30.36,10,7,3,9,2,,0.00,0,,112
2014-1-15,67,51,35,40,37,34,92,63,34,30.39,30.30,30.22,9,6,5,15,3,29,0.00,0,,82
2014-1-16,69,51,32,39,36,31,96,65,34,30.27,30.21,30.15,6,4,2,18,1,49,0.00,0,,110
2014-1-17,68,50,32,38,35,32,96,64,32,30.23,30.16,30.12,8,5,3,44,2,74,0.00,0,,290
2014-1-18,69,51,32,38,33,30,92,58,23,30.20,30.13,30.08,9,6,3,6,1,33,0.00,0,,123
2014-1-19,69,50,31,37,34,30,92,61,29,30.17,30.12,30.07,6,4,2,6,1,8,0.00,0,,115
2014-1-20,68,50,31,36,32,29,96,60,24,30.24,30.17,30.13,10,5,2,5,1,,0.00,0,,116
2014-1-21,67,50,32,34,31,28,92,58,24,30.28,30.22,30.16,10,8,4,9,2,,0.00,0,,321
2014-1-22,68,50,31,34,29,23,92,56,19,30.16,30.05,29.93,10,9,5,10,2,,0.00,0,,122
2014-1-23,66,50,34,36,33,30,82,57,31,30.03,29.94,29.90,8,5,3,9,2,,0.00,0,,109
2014-1-24,73,56,38,38,34,28,85,53,20,30.26,30.15,30.04,6,4,3,6,1,,0.00,1,,260
2014-1-25,73,59,45,36,32,26,65,42,19,30.25,30.19,30.12,10,9,6,7,3,,0.00,0,,332
2014-1-26,69,54,38,34,32,30,82,53,23,30.14,30.08,30.02,10,10,8,6,1,,0.00,0,,157
2014-1-27,66,51,36,41,36,32,89,62,34,30.18,30.12,30.06,10,9,6,8,1,13,0.00,0,,318
2014-1-28,70,58,46,53,45,39,77,59,40,30.25,30.19,30.15,10,9,6,17,2,,0.00,1,,329
2014-1-29,69,60,51,55,52,48,89,74,59,30.20,30.11,29.95,10,10,8,12,2,,0.00,6,,18
2014-1-30,63,58,52,52,47,37,96,76,56,29.93,29.88,29.83,10,9,2,13,8,38,0.42,6,Rain,309
2014-1-31,60,52,43,45,36,20,92,60,27,30.05,30.00,29.90,10,10,6,17,8,23,0.08,1,Rain,313